Time;durP1;ratioP1;P1;durP2;ratioP2;P2;SDS_P1;SDS_P2;PMS_P1;PMS_P2;Temp;Humidity;BMP_temperature;BMP_pressure;BME280_temperature;BME280_humidity;BME280_pressure;Samples;Min_cycle;Max_cycle;Signal;HPM_P1;HPM_P2
2023/03/02 00:02:45;;;;;;;1.30;1.20;;;;;;;-9.15;60.86;94893.41;6320738;28;20125;-67
2023/03/02 00:05:50;;;;;;;1.35;1.23;;;;;;;-9.29;61.79;94911.50;6320554;28;20050;-67
2023/03/02 00:08:59;;;;;;;2.53;1.60;;;;;;;-9.25;61.70;94922.50;6320439;28;20128;-66
2023/03/02 00:12:01;;;;;;;1.42;1.33;;;;;;;-9.13;61.51;94922.25;6319678;28;20063;-67
2023/03/02 00:15:06;;;;;;;3.08;1.65;;;;;;;-9.28;61.35;94927.66;6320535;28;20040;-67
2023/03/02 00:18:10;;;;;;;1.73;1.15;;;;;;;-9.33;61.37;94934.53;6319996;28;20044;-67
2023/03/02 00:21:14;;;;;;;2.97;2.00;;;;;;;-9.43;61.43;94945.75;6319750;28;20052;-66
2023/03/02 00:24:19;;;;;;;2.70;1.50;;;;;;;-9.37;61.25;94943.09;6320307;28;20048;-67
2023/03/02 00:27:23;;;;;;;3.05;1.52;;;;;;;-9.35;60.80;94951.53;6318480;28;20529;-67
2023/03/02 00:30:29;;;;;;;3.72;1.73;;;;;;;-9.56;61.11;94953.63;6319442;28;20071;-67
2023/03/02 00:33:35;;;;;;;4.70;1.10;;;;;;;-9.63;61.17;94943.56;6320067;28;20395;-67
2023/03/02 00:36:36;;;;;;;1.50;1.38;;;;;;;-9.67;61.41;94954.69;6319624;28;20525;-66
2023/03/02 00:39:40;;;;;;;1.45;1.35;;;;;;;-9.41;60.37;94949.13;6319873;28;20524;-67
2023/03/02 00:42:44;;;;;;;2.00;1.90;;;;;;;-9.26;59.16;94946.28;6319318;28;20051;-67
2023/03/02 00:45:45;;;;;;;1.08;1.08;;;;;;;-9.34;58.90;94937.94;6318006;28;20048;-67
2023/03/02 00:48:49;;;;;;;1.17;1.15;;;;;;;-9.39;58.28;94924.47;6319639;28;20044;-67
2023/03/02 00:51:51;;;;;;;2.03;1.25;;;;;;;-9.62;58.27;94918.09;6318705;28;20052;-66
2023/03/02 00:54:52;;;;;;;2.22;1.00;;;;;;;-9.68;58.74;94900.41;6319367;28;20036;-66
2023/03/02 00:57:56;;;;;;;1.30;1.08;;;;;;;-9.52;57.68;94899.22;6319381;28;20055;-67
2023/03/02 01:01:05;;;;;;;1.30;1.17;;;;;;;-9.62;57.50;94905.38;6317846;28;20051;-67
2023/03/02 01:04:08;;;;;;;1.35;0.95;;;;;;;-9.80;57.96;94906.53;6319342;28;20044;-68
2023/03/02 01:07:13;;;;;;;1.40;1.30;;;;;;;-9.69;57.52;94929.25;6319571;28;20501;-67
2023/03/02 01:10:15;;;;;;;3.17;1.27;;;;;;;-9.77;57.26;94943.81;6319265;28;20512;-67
2023/03/02 01:13:19;;;;;;;6.38;1.10;;;;;;;-9.79;57.54;94950.66;6319075;28;20036;-67
2023/03/02 01:16:25;;;;;;;2.13;0.90;;;;;;;-9.85;57.29;94961.78;6319122;28;20043;-67
2023/03/02 01:19:29;;;;;;;1.15;0.90;;;;;;;-9.80;56.59;94974.41;6319144;28;20493;-67
2023/03/02 01:22:34;;;;;;;4.88;1.20;;;;;;;-9.99;57.03;94974.72;6318908;28;20039;-67
2023/03/02 01:25:37;;;;;;;3.05;1.17;;;;;;;-9.91;57.11;94981.38;6319113;28;20131;-67
2023/03/02 01:28:43;;;;;;;1.95;1.35;;;;;;;-10.08;57.31;94995.19;6319264;28;20501;-67
2023/03/02 01:31:47;;;;;;;0.93;0.90;;;;;;;-10.01;57.82;94990.84;6319174;28;20044;-67
2023/03/02 01:34:50;;;;;;;1.05;0.95;;;;;;;-10.00;57.45;94982.34;6318948;28;20048;-67
2023/03/02 01:37:52;;;;;;;0.88;0.88;;;;;;;-9.61;56.56;94991.03;6319077;28;20032;-68
2023/03/02 01:40:53;;;;;;;2.33;0.80;;;;;;;-9.82;57.32;94986.28;6321181;28;20516;-68
2023/03/02 01:43:57;;;;;;;;;;;;;;;-9.76;57.81;94991.31;6324662;28;20170;-67
2023/03/02 01:46:58;;;;;;;2.97;1.35;;;;;;;-9.87;58.19;94988.09;6323893;28;19920;-67
2023/03/02 01:50:18;;;;;;;1.00;0.90;;;;;;;-9.73;58.53;94998.88;6324177;28;20040;-67
2023/03/02 01:53:25;;;;;;;2.25;1.42;;;;;;;-9.78;59.33;95003.22;6323987;28;20078;-67
2023/03/02 01:56:34;;;;;;;4.10;1.52;;;;;;;-9.74;59.70;95000.59;6323723;28;20036;-67
2023/03/02 01:59:43;;;;;;;1.10;1.00;;;;;;;-9.67;60.27;95021.69;6323690;28;20447;-67
2023/03/02 02:02:48;;;;;;;1.33;1.20;;;;;;;-9.61;60.18;95031.78;6322783;28;20199;-68
2023/03/02 02:06:21;;;;;;;5.47;1.50;;;;;;;-9.60;60.36;95036.00;6324307;28;20040;-68
2023/03/02 02:09:29;;;;;;;2.95;1.58;;;;;;;-9.69;60.82;95036.13;6317075;28;20077;-67
2023/03/02 02:12:48;;;;;;;2.25;1.83;;;;;;;-9.54;60.35;95037.59;6322435;28;20126;-67
2023/03/02 02:16:14;;;;;;;1.83;1.55;;;;;;;-9.51;60.73;95042.63;6322420;28;20386;-67
2023/03/02 02:19:44;;;;;;;1.20;0.95;;;;;;;-9.28;60.32;95047.34;6323174;28;20036;-67
2023/03/02 02:22:59;;;;;;;2.95;0.80;;;;;;;-9.18;59.76;95048.84;6323364;28;20039;-67
2023/03/02 02:26:11;;;;;;;1.05;0.95;;;;;;;-9.15;59.15;95040.31;6323070;28;20044;-66
2023/03/02 02:29:23;;;;;;;1.10;1.10;;;;;;;-9.22;59.06;95037.06;6322939;28;20120;-67
2023/03/02 02:32:33;;;;;;;1.20;0.73;;;;;;;-9.09;57.83;95035.94;6322709;28;20541;-67
2023/03/02 02:35:39;;;;;;;4.53;1.10;;;;;;;-9.14;56.88;95037.75;6322486;28;20170;-68
2023/03/02 02:38:49;;;;;;;1.05;1.05;;;;;;;-9.07;55.98;95043.56;6322515;28;20166;-68
2023/03/02 02:41:58;;;;;;;1.95;1.00;;;;;;;-9.21;56.34;95048.91;6322376;28;20078;-68
2023/03/02 02:45:06;;;;;;;1.67;1.10;;;;;;;-9.21;56.06;95036.19;6322435;28;20148;-68
2023/03/02 02:48:17;;;;;;;1.35;0.93;;;;;;;-9.08;56.36;95041.91;6320772;28;20139;-68
2023/03/02 02:51:25;;;;;;;1.17;0.90;;;;;;;-9.04;56.58;95059.66;6321320;28;20113;-68
2023/03/02 02:54:33;;;;;;;2.53;1.08;;;;;;;-8.92;56.83;95062.84;6321958;28;20047;-68
2023/03/02 02:57:40;;;;;;;0.90;0.90;;;;;;;-8.92;57.19;95067.94;6321902;28;20040;-67
2023/03/02 03:00:45;;;;;;;1.30;0.98;;;;;;;-8.68;57.67;95077.69;6322087;28;20125;-68
2023/03/02 03:04:02;;;;;;;0.77;0.70;;;;;;;-8.66;57.93;95075.94;6321758;28;20048;-68
2023/03/02 03:07:09;;;;;;;1.85;0.82;;;;;;;-8.75;58.48;95081.19;6321699;28;20040;-67
2023/03/02 03:10:33;;;;;;;0.95;0.93;;;;;;;-8.59;58.07;95090.25;6321879;28;20527;-67
2023/03/02 03:13:41;;;;;;;1.95;1.13;;;;;;;-8.38;56.92;95090.66;6321360;28;20113;-69
2023/03/02 03:16:47;;;;;;;2.25;0.50;;;;;;;-8.48;57.09;95089.22;6321626;28;20040;-68
2023/03/02 03:19:52;;;;;;;2.90;1.90;;;;;;;-8.37;57.19;95089.81;6320309;28;20063;-68
2023/03/02 03:22:59;;;;;;;2.67;1.42;;;;;;;-8.34;57.21;95092.28;6321276;28;20114;-68
2023/03/02 03:26:04;;;;;;;2.30;1.10;;;;;;;-8.39;57.09;95094.13;6321448;28;20102;-68
2023/03/02 03:29:08;;;;;;;0.95;0.93;;;;;;;-8.43;56.39;95087.41;6303608;28;20082;-68
2023/03/02 03:32:13;;;;;;;0.43;0.43;;;;;;;-8.37;56.03;95098.28;6320878;28;20117;-67
2023/03/02 03:35:18;;;;;;;1.38;1.13;;;;;;;-8.24;55.71;95098.88;6321705;28;20443;-67
2023/03/02 03:38:21;;;;;;;;;;;;;;;-8.06;54.48;95101.94;6319844;28;20136;-68
2023/03/02 03:41:26;;;;;;;4.47;1.30;;;;;;;-8.31;54.58;95102.44;6320461;28;19941;-68
2023/03/02 03:44:29;;;;;;;1.95;0.80;;;;;;;-8.54;54.67;95108.03;6320825;28;20197;-68
2023/03/02 03:47:34;;;;;;;1.25;0.90;;;;;;;-8.54;55.15;95115.66;6320914;28;20087;-67
2023/03/02 03:50:39;;;;;;;1.90;1.10;;;;;;;-8.49;54.64;95118.97;6320560;28;20116;-67
2023/03/02 03:53:42;;;;;;;2.25;1.23;;;;;;;-8.45;54.36;95124.84;6320440;28;20126;-67
2023/03/02 03:56:49;;;;;;;0.93;0.80;;;;;;;-8.26;53.48;95123.59;6320406;28;20173;-67
2023/03/02 03:59:54;;;;;;;3.17;0.90;;;;;;;-8.44;54.17;95121.41;6320673;28;20039;-67
2023/03/02 04:02:58;;;;;;;1.55;0.90;;;;;;;-8.55;53.92;95119.06;6320760;28;20412;-68
2023/03/02 04:06:02;;;;;;;1.13;0.82;;;;;;;-8.57;53.85;95135.28;6320261;28;20515;-67
2023/03/02 04:09:07;;;;;;;1.35;1.08;;;;;;;-8.40;53.25;95121.34;6320288;28;20124;-67
2023/03/02 04:12:12;;;;;;;3.03;0.90;;;;;;;-8.38;52.91;95136.56;6320011;28;20047;-66
2023/03/02 04:15:15;;;;;;;;;;;;;;;-8.26;53.09;95131.25;6320218;28;20044;-67
2023/03/02 04:18:20;;;;;;;0.80;0.80;;;;;;;-8.49;53.46;95130.88;6319897;28;19997;-68
2023/03/02 04:21:26;;;;;;;2.00;1.08;;;;;;;-8.46;53.25;95135.94;6319694;28;20048;-68
2023/03/02 04:24:31;;;;;;;0.75;0.75;;;;;;;-8.37;53.31;95139.09;6319631;28;20181;-66
2023/03/02 04:27:36;;;;;;;2.00;0.70;;;;;;;-8.52;53.60;95136.91;6320135;28;20441;-68
2023/03/02 04:30:41;;;;;;;0.70;0.70;;;;;;;-8.43;53.49;95128.22;6319892;28;20075;-68
2023/03/02 04:33:45;;;;;;;0.90;0.90;;;;;;;-8.44;53.57;95131.63;6319801;28;20082;-68
2023/03/02 04:36:50;;;;;;;0.80;0.80;;;;;;;-8.50;53.62;95141.94;6319717;28;20509;-68
2023/03/02 04:39:55;;;;;;;0.73;0.70;;;;;;;-8.45;53.56;95135.88;6319884;28;20097;-67
2023/03/02 04:43:00;;;;;;;0.68;0.57;;;;;;;-8.32;53.91;95136.47;6319960;28;20507;-67
2023/03/02 04:46:05;;;;;;;1.48;0.80;;;;;;;-8.34;54.03;95140.75;6319562;28;20113;-66
2023/03/02 04:49:10;;;;;;;1.70;0.80;;;;;;;-8.30;53.75;95144.91;6300880;28;20144;-68
2023/03/02 04:52:15;;;;;;;0.75;0.75;;;;;;;-8.23;53.57;95154.16;6319375;28;20128;-68
2023/03/02 04:55:19;;;;;;;;;;;;;;;-8.14;53.88;95146.31;6319841;28;20090;-68
2023/03/02 04:58:23;;;;;;;3.10;0.77;;;;;;;-8.02;53.12;95147.75;6319508;28;19969;-66
2023/03/02 05:01:28;;;;;;;2.95;1.02;;;;;;;-8.07;52.80;95157.22;6319274;28;20090;-67
2023/03/02 05:04:33;;;;;;;0.95;0.88;;;;;;;-7.92;52.72;95166.31;6319319;28;20125;-67
2023/03/02 05:07:38;;;;;;;1.17;0.88;;;;;;;-7.87;52.79;95156.81;6319431;28;20527;-68
2023/03/02 05:10:43;;;;;;;1.20;0.63;;;;;;;-7.91;53.20;95157.75;6319253;28;20137;-67
2023/03/02 05:13:50;;;;;;;0.95;0.70;;;;;;;-7.85;53.36;95160.19;6319043;28;20144;-68
2023/03/02 05:16:53;;;;;;;1.48;1.23;;;;;;;-7.65;52.66;95164.88;6318803;28;20125;-68
2023/03/02 05:19:58;;;;;;;1.58;1.10;;;;;;;-7.60;52.26;95172.44;6319244;28;20090;-68
2023/03/02 05:23:08;;;;;;;1.20;1.10;;;;;;;-7.56;52.64;95179.16;6319436;28;20133;-68
2023/03/02 05:26:14;;;;;;;1.60;0.88;;;;;;;-7.39;52.69;95171.94;6318313;28;20086;-68
2023/03/02 05:29:18;;;;;;;0.65;0.60;;;;;;;-7.15;51.29;95185.06;6319272;28;20386;-68
2023/03/02 05:32:23;;;;;;;1.83;0.70;;;;;;;-7.21;51.52;95180.94;6318868;28;20048;-69
2023/03/02 05:35:28;;;;;;;5.80;2.47;;;;;;;-7.19;52.15;95193.66;6318837;28;20112;-68
2023/03/02 05:38:31;;;;;;;;;;;;;;;-6.85;51.10;95186.91;6317895;28;20051;-67
2023/03/02 05:41:37;;;;;;;5.60;0.98;;;;;;;-6.89;50.69;95185.28;6318789;28;19972;-67
2023/03/02 05:44:42;;;;;;;0.85;0.85;;;;;;;-6.79;50.96;95191.88;6318609;28;20035;-67
2023/03/02 05:47:44;;;;;;;;;;;;;;;-5.68;49.66;95201.72;6317790;28;20052;-69
2023/03/02 05:50:49;;;;;;;1.17;0.88;;;;;;;-0.93;42.77;95193.38;6318873;28;20047;-68
2023/03/02 05:53:53;;;;;;;2.15;0.57;;;;;;;2.82;34.09;95189.59;6318749;28;20110;-68
2023/03/02 05:56:57;;;;;;;;;;;;;;;5.67;31.61;95199.25;6318863;28;20527;-68
2023/03/02 06:00:01;;;;;;;1.17;0.80;;;;;;;8.05;27.42;95201.94;6318673;28;20441;-68
2023/03/02 06:03:06;;;;;;;1.35;0.90;;;;;;;10.20;25.01;95210.66;6300842;28;20402;-67
2023/03/02 06:06:12;;;;;;;0.85;0.70;;;;;;;11.53;22.46;95199.31;6318643;28;20039;-68
2023/03/02 06:09:17;;;;;;;2.05;0.90;;;;;;;13.37;21.38;95204.91;6317209;28;20048;-69
2023/03/02 06:12:22;;;;;;;1.70;0.60;;;;;;;15.59;20.29;95204.94;6318425;28;20040;-68
2023/03/02 06:15:28;;;;;;;0.50;0.40;;;;;;;17.50;19.05;95197.97;6318491;28;20045;-68
2023/03/02 06:18:35;;;;;;;2.65;0.50;;;;;;;18.93;17.29;95193.88;6318523;28;20134;-68
2023/03/02 06:21:39;;;;;;;1.02;0.50;;;;;;;19.19;15.87;95203.97;6318057;28;20116;-67
2023/03/02 06:24:42;;;;;;;0.63;0.45;;;;;;;19.07;15.12;95205.50;6318434;28;20036;-68
2023/03/02 06:27:52;;;;;;;1.40;0.50;;;;;;;19.35;15.01;95199.34;6319999;28;20046;-68
2023/03/02 06:30:59;;;;;;;1.42;0.50;;;;;;;18.74;14.68;95210.53;6322726;28;20044;-69
2023/03/02 06:34:04;;;;;;;1.83;0.77;;;;;;;18.71;14.58;95198.41;6322873;28;20421;-68
2023/03/02 06:37:09;;;;;;;2.92;0.85;;;;;;;19.56;15.26;95196.63;6322623;28;20044;-68
2023/03/02 06:40:14;;;;;;;1.05;0.47;;;;;;;19.77;13.58;95200.25;6322527;28;20184;-68
2023/03/02 06:43:18;;;;;;;1.17;0.50;;;;;;;18.82;13.92;95191.75;6320576;28;20524;-68
2023/03/02 06:46:22;;;;;;;1.73;0.52;;;;;;;18.90;14.25;95188.13;6320964;28;20036;-69
2023/03/02 06:49:27;;;;;;;1.58;0.52;;;;;;;18.87;13.62;95201.84;6321169;28;20036;-68
2023/03/02 06:52:34;;;;;;;1.10;0.43;;;;;;;18.64;13.76;95197.50;6321983;28;20600;-68
2023/03/02 06:55:38;;;;;;;0.70;0.50;;;;;;;18.21;13.73;95210.78;6322270;28;20043;-68
2023/03/02 06:58:43;;;;;;;4.97;2.95;;;;;;;18.20;13.84;95214.44;6321998;28;20174;-68
2023/03/02 07:01:50;;;;;;;0.30;0.30;;;;;;;18.96;13.75;95228.16;6322000;28;20137;-68
2023/03/02 07:04:55;;;;;;;0.32;0.30;;;;;;;18.23;13.93;95224.72;6320581;28;20047;-68
2023/03/02 07:08:00;;;;;;;1.60;0.55;;;;;;;18.62;14.00;95218.16;6321701;28;20036;-69
2023/03/02 07:11:12;;;;;;;1.25;0.40;;;;;;;19.66;13.14;95226.44;6321789;28;20044;-68
2023/03/02 07:14:17;;;;;;;1.10;0.35;;;;;;;19.72;12.96;95228.34;6320413;28;20118;-68
2023/03/02 07:17:21;;;;;;;1.70;0.55;;;;;;;18.82;13.17;95245.88;6322008;28;20505;-68
2023/03/02 07:20:24;;;;;;;0.98;0.60;;;;;;;17.60;13.88;95242.09;6319992;28;20520;-68
2023/03/02 07:23:29;;;;;;;0.60;0.50;;;;;;;16.70;14.33;95261.44;6320274;28;20411;-68
2023/03/02 07:26:34;;;;;;;0.90;0.82;;;;;;;16.69;14.74;95247.34;6321181;28;20127;-68
2023/03/02 07:29:37;;;;;;;1.08;0.82;;;;;;;16.89;14.37;95258.34;6319716;28;20189;-68
2023/03/02 07:32:41;;;;;;;1.40;0.70;;;;;;;16.41;14.13;95233.75;6319854;28;20501;-69
2023/03/02 07:35:44;;;;;;;2.28;0.95;;;;;;;16.04;14.58;95248.53;6321588;28;20512;-69
2023/03/02 07:38:49;;;;;;;1.42;0.63;;;;;;;16.21;14.51;95269.72;6320829;28;20109;-68
2023/03/02 07:41:57;;;;;;;1.02;0.45;;;;;;;15.18;15.05;95251.94;6320778;28;20121;-68
2023/03/02 07:45:03;;;;;;;1.40;0.85;;;;;;;13.56;16.49;95244.31;6321071;28;20533;-68
2023/03/02 07:48:07;;;;;;;2.25;0.60;;;;;;;13.44;16.41;95253.47;6320746;28;20086;-68
2023/03/02 07:51:14;;;;;;;1.42;0.70;;;;;;;13.14;16.56;95244.19;6320637;28;20325;-69
2023/03/02 07:54:19;;;;;;;1.48;0.55;;;;;;;12.18;17.45;95249.31;6320723;28;20125;-68
2023/03/02 07:57:24;;;;;;;0.68;0.47;;;;;;;9.78;19.06;95258.16;6320706;28;20040;-67
2023/03/02 08:00:29;;;;;;;1.27;0.57;;;;;;;6.48;22.36;95248.16;6320448;28;20044;-67
2023/03/02 08:03:34;;;;;;;1.77;1.35;;;;;;;4.84;24.56;95259.81;6320453;28;20547;-67
2023/03/02 08:06:39;;;;;;;2.92;1.02;;;;;;;4.23;25.68;95243.88;6320559;28;20044;-68
2023/03/02 08:09:44;;;;;;;0.93;0.90;;;;;;;3.17;27.23;95251.53;6320486;28;20044;-67
2023/03/02 08:12:49;;;;;;;1.55;0.70;;;;;;;2.17;28.69;95244.50;6320156;28;20082;-67
2023/03/02 08:16:00;;;;;;;1.73;0.70;;;;;;;1.96;29.83;95264.75;6320268;28;20144;-68
2023/03/02 08:19:06;;;;;;;1.88;0.60;;;;;;;2.23;29.36;95238.97;6320147;28;20136;-68
2023/03/02 08:22:10;;;;;;;2.45;0.80;;;;;;;2.01;29.33;95235.03;6320200;28;20178;-68
2023/03/02 08:25:15;;;;;;;1.08;0.80;;;;;;;1.20;30.47;95211.03;6319973;28;20124;-68
2023/03/02 08:28:22;;;;;;;2.10;0.60;;;;;;;0.74;31.29;95229.06;6318254;28;20052;-67
2023/03/02 08:31:26;;;;;;;1.48;0.90;;;;;;;0.32;32.34;95232.94;6319820;28;20067;-68
2023/03/02 08:34:29;;;;;;;1.08;0.73;;;;;;;0.28;32.01;95231.41;6318734;28;20144;-68
2023/03/02 08:37:33;;;;;;;0.50;0.50;;;;;;;0.34;31.83;95225.09;6319615;28;20079;-67
2023/03/02 08:40:38;;;;;;;1.20;0.90;;;;;;;0.49;31.11;95232.06;6319494;28;20047;-68
2023/03/02 08:43:43;;;;;;;1.52;0.85;;;;;;;0.65;31.38;95229.50;6319809;28;20044;-68
2023/03/02 08:46:48;;;;;;;0.77;0.73;;;;;;;0.35;32.23;95232.78;6318193;28;20117;-68
2023/03/02 08:49:53;;;;;;;1.63;0.98;;;;;;;0.71;32.00;95239.56;6318803;28;20040;-68
2023/03/02 08:52:57;;;;;;;1.25;1.08;;;;;;;0.41;31.15;95227.28;6319165;28;20467;-68
2023/03/02 08:56:02;;;;;;;1.67;0.73;;;;;;;0.26;31.95;95233.25;6319558;28;20074;-67
2023/03/02 08:59:12;;;;;;;5.05;1.05;;;;;;;-0.42;33.66;95258.16;6319462;28;20186;-68
2023/03/02 09:02:17;;;;;;;0.70;0.60;;;;;;;-0.82;36.31;95241.91;6319249;28;20124;-68
2023/03/02 09:05:22;;;;;;;1.40;0.90;;;;;;;-0.84;35.56;95249.75;6319217;28;20048;-69
2023/03/02 09:08:26;;;;;;;0.95;0.70;;;;;;;-0.60;35.07;95221.94;6318169;28;20116;-67
2023/03/02 09:11:32;;;;;;;1.20;0.85;;;;;;;-0.48;35.64;95234.28;6319191;28;20117;-67
2023/03/02 09:14:37;;;;;;;0.73;0.35;;;;;;;0.01;33.53;95222.47;6319352;28;20117;-67
2023/03/02 09:17:41;;;;;;;1.17;0.82;;;;;;;0.13;34.51;95221.84;6319317;28;20124;-67
2023/03/02 09:20:51;;;;;;;2.38;1.05;;;;;;;0.27;33.84;95227.16;6319140;28;20094;-68
2023/03/02 09:23:56;;;;;;;1.73;1.00;;;;;;;2.02;30.22;95225.47;6319207;28;20113;-68
2023/03/02 09:27:00;;;;;;;1.20;0.77;;;;;;;3.31;29.28;95207.34;6319084;28;20040;-68
2023/03/02 09:30:06;;;;;;;1.48;1.35;;;;;;;4.34;28.33;95255.38;6317635;28;20082;-68
2023/03/02 09:33:10;;;;;;;1.73;1.08;;;;;;;4.60;28.30;95235.41;6319166;28;20048;-68
2023/03/02 09:36:23;;;;;;;3.42;1.10;;;;;;;5.18;28.00;95218.38;6318879;28;20116;-69
2023/03/02 09:39:28;;;;;;;2.10;1.20;;;;;;;6.71;25.60;95235.16;6315028;28;20093;-68
2023/03/02 09:42:41;;;;;;;1.63;1.00;;;;;;;6.84;25.07;95235.84;6317773;28;20488;-68
2023/03/02 09:46:10;;;;;;;2.60;1.70;;;;;;;5.32;26.61;95256.50;6317390;28;20433;-68
2023/03/02 09:49:17;;;;;;;2.10;1.17;;;;;;;5.24;28.13;95217.94;6318686;28;20120;-67
2023/03/02 09:52:43;;;;;;;1.60;1.02;;;;;;;7.34;25.49;95233.75;6318661;28;20555;-68
2023/03/02 09:55:59;;;;;;;2.03;1.00;;;;;;;8.94;22.64;95229.47;6318758;28;20036;-67
2023/03/02 09:59:27;;;;;;;3.22;1.10;;;;;;;9.21;22.29;95233.34;6318539;28;20082;-68
2023/03/02 10:02:47;;;;;;;2.08;1.00;;;;;;;9.03;21.84;95245.41;6317966;28;20048;-68
2023/03/02 10:05:54;;;;;;;2.55;1.00;;;;;;;8.15;23.24;95250.00;6323376;28;20121;-68
2023/03/02 10:08:58;;;;;;;0.95;0.80;;;;;;;7.29;24.02;95250.75;6323549;28;20109;-67
2023/03/02 10:12:29;;;;;;;2.45;1.23;;;;;;;6.39;25.38;95271.50;6323517;28;20116;-67
2023/03/02 10:15:50;;;;;;;0.95;0.60;;;;;;;6.58;24.78;95230.00;6323310;28;20544;-68
2023/03/02 10:19:11;;;;;;;2.08;1.17;;;;;;;6.94;24.33;95230.78;6321990;28;20082;-68
2023/03/02 10:22:27;;;;;;;2.30;0.90;;;;;;;7.31;24.22;95239.22;6322710;28;20039;-68
2023/03/02 10:25:56;;;;;;;1.48;0.68;;;;;;;7.65;23.29;95239.19;6321346;28;20132;-68
2023/03/02 10:29:20;;;;;;;2.38;0.88;;;;;;;8.58;22.18;95227.31;6322834;28;20051;-68
2023/03/02 10:32:32;;;;;;;1.85;0.90;;;;;;;9.38;20.81;95235.38;6322850;28;20093;-68
2023/03/02 10:35:41;;;;;;;1.65;0.98;;;;;;;9.54;20.49;95228.78;6322985;28;20101;-67
2023/03/02 10:38:45;;;;;;;4.53;1.55;;;;;;;9.20;20.50;95242.22;6322476;28;20514;-67
2023/03/02 10:42:01;;;;;;;1.23;0.75;;;;;;;6.88;23.16;95253.00;6322696;28;20047;-67
2023/03/02 10:45:29;;;;;;;1.67;0.73;;;;;;;4.30;26.60;95244.31;6321244;28;20098;-67
2023/03/02 10:48:56;;;;;;;1.80;0.82;;;;;;;2.15;29.89;95236.84;6322365;28;20086;-67
2023/03/02 10:52:14;;;;;;;1.58;0.95;;;;;;;1.60;30.94;95234.75;6321794;28;20063;-67
2023/03/02 10:55:18;;;;;;;2.58;1.20;;;;;;;0.96;31.19;95246.03;6322142;28;20082;-67
2023/03/02 10:58:29;;;;;;;2.33;0.90;;;;;;;0.22;32.43;95255.00;6321122;28;20112;-68
2023/03/02 11:01:33;;;;;;;1.13;0.90;;;;;;;0.20;32.90;95223.22;6321994;28;20097;-66
2023/03/02 11:04:38;;;;;;;0.90;0.85;;;;;;;2.26;30.15;95243.97;6322275;28;20089;-67
2023/03/02 11:07:52;;;;;;;3.15;1.02;;;;;;;4.01;28.04;95249.66;6322022;28;20178;-68
2023/03/02 11:11:04;;;;;;;5.07;1.95;;;;;;;3.54;27.41;95240.53;6321629;28;20118;-69
2023/03/02 11:14:16;;;;;;;2.78;1.20;;;;;;;1.61;30.22;95249.38;6321052;28;20162;-68
2023/03/02 11:17:33;;;;;;;1.10;1.00;;;;;;;0.81;32.09;95245.91;6321783;28;20047;-68
2023/03/02 11:20:44;;;;;;;2.72;1.05;;;;;;;0.54;32.40;95242.16;6321784;28;20108;-68
2023/03/02 11:24:06;;;;;;;2.28;1.15;;;;;;;0.15;32.96;95245.88;6320394;28;20113;-68
2023/03/02 11:27:23;;;;;;;1.92;1.00;;;;;;;-1.12;34.38;95242.44;6321525;28;20120;-67
2023/03/02 11:30:30;;;;;;;1.92;1.10;;;;;;;-1.60;35.70;95239.38;6321526;28;20121;-67
2023/03/02 11:34:10;;;;;;;0.98;0.95;;;;;;;-1.85;36.36;95226.69;6321340;28;20044;-68
2023/03/02 11:37:25;;;;;;;1.17;0.90;;;;;;;-1.95;37.01;95233.16;6300376;28;20610;-68
2023/03/02 11:40:34;;;;;;;2.97;1.55;;;;;;;-1.72;36.82;95239.06;6321002;28;20082;-67
2023/03/02 11:43:41;;;;;;;2.55;1.10;;;;;;;-1.78;37.16;95229.84;6320998;28;20138;-68
2023/03/02 11:46:49;;;;;;;4.22;1.10;;;;;;;-1.52;36.79;95220.97;6321041;28;20044;-68
2023/03/02 11:50:00;;;;;;;2.00;1.17;;;;;;;-0.99;35.58;95235.81;6319276;28;20055;-68
2023/03/02 11:53:10;;;;;;;1.92;0.95;;;;;;;-0.67;35.40;95217.97;6321075;28;20055;-67
2023/03/02 11:56:14;;;;;;;2.28;1.13;;;;;;;-0.73;34.92;95226.03;6320991;28;20048;-68
2023/03/02 11:59:23;;;;;;;1.48;0.82;;;;;;;-0.53;33.52;95233.66;6320683;28;20044;-67
2023/03/02 12:02:30;;;;;;;2.55;1.00;;;;;;;-1.19;34.31;95243.59;6320460;28;20059;-66
2023/03/02 12:05:36;;;;;;;3.05;1.20;;;;;;;-1.42;34.42;95232.56;6320522;28;20043;-67
2023/03/02 12:08:41;;;;;;;2.42;0.93;;;;;;;-1.57;35.25;95228.06;6320120;28;20105;-68
2023/03/02 12:11:45;;;;;;;4.22;1.17;;;;;;;-1.93;35.84;95226.16;6321004;28;20036;-68
2023/03/02 12:14:47;;;;;;;2.17;1.10;;;;;;;-2.40;37.84;95257.31;6320301;28;20050;-68
2023/03/02 12:17:48;;;;;;;1.55;0.82;;;;;;;-2.60;38.23;95231.53;6320093;28;20490;-67
2023/03/02 12:21:07;;;;;;;2.38;1.20;;;;;;;-3.08;39.44;95242.81;6320038;28;20036;-67
2023/03/02 12:24:30;;;;;;;2.30;1.20;;;;;;;-3.45;39.98;95249.31;6319482;28;20087;-67
2023/03/02 12:27:37;;;;;;;1.63;1.20;;;;;;;-3.83;40.86;95256.63;6320431;28;20081;-68
2023/03/02 12:30:54;;;;;;;1.55;1.27;;;;;;;-3.04;39.99;95254.66;6320120;28;20040;-69
2023/03/02 12:33:56;;;;;;;0.93;0.70;;;;;;;-2.43;38.25;95247.13;6319226;28;20052;-68
2023/03/02 12:37:14;;;;;;;3.10;1.80;;;;;;;-2.23;38.13;95254.06;6320088;28;20044;-68
2023/03/02 12:40:37;;;;;;;2.65;1.20;;;;;;;-1.31;36.25;95244.97;6319167;28;20051;-67
2023/03/02 12:44:00;;;;;;;2.07;0.80;;;;;;;-0.93;34.93;95242.44;6319545;28;20048;-67
2023/03/02 12:47:02;;;;;;;2.45;0.70;;;;;;;-0.99;35.03;95246.13;6318923;28;20132;-68
2023/03/02 12:50:19;;;;;;;3.45;0.90;;;;;;;-0.95;35.12;95242.50;6319593;28;20040;-67
2023/03/02 12:53:20;;;;;;;2.88;1.13;;;;;;;-1.04;34.91;95242.09;6319116;28;20063;-66
2023/03/02 12:56:26;;;;;;;1.13;0.93;;;;;;;-2.33;36.96;95243.28;6319067;28;20051;-67
2023/03/02 12:59:28;;;;;;;1.48;0.82;;;;;;;-3.32;38.72;95250.53;6319219;28;20036;-68
2023/03/02 13:02:34;;;;;;;1.13;0.90;;;;;;;-3.86;39.85;95233.59;6319150;28;20490;-68
2023/03/02 13:05:35;;;;;;;0.77;0.77;;;;;;;-4.47;41.45;95241.66;6318478;28;20048;-67
2023/03/02 13:08:37;;;;;;;0.68;0.68;;;;;;;-4.85;42.20;95241.13;6319057;28;20040;-69
2023/03/02 13:11:38;;;;;;;1.65;1.10;;;;;;;-5.09;42.40;95237.59;6317846;28;20040;-69
2023/03/02 13:14:42;;;;;;;1.58;1.00;;;;;;;-5.56;43.76;95244.09;6319017;28;20043;-68
2023/03/02 13:17:44;;;;;;;;;;;;;;;-5.73;43.32;95247.13;6319213;28;20035;-68
2023/03/02 13:20:46;;;;;;;1.95;1.48;;;;;;;-5.82;44.31;95244.81;6318976;28;20309;-67
2023/03/02 13:23:53;;;;;;;1.27;1.00;;;;;;;-5.99;44.87;95256.38;6319009;28;20052;-68
2023/03/02 13:27:03;;;;;;;1.10;0.82;;;;;;;-6.31;46.13;95254.66;6319217;28;20036;-68
2023/03/02 13:30:21;;;;;;;1.63;1.45;;;;;;;-6.51;47.05;95257.72;6319178;28;20032;-68
2023/03/02 13:33:24;;;;;;;1.38;1.00;;;;;;;-6.74;47.87;95267.63;6318675;28;20524;-68
2023/03/02 13:36:34;;;;;;;1.58;1.48;;;;;;;-6.95;48.74;95259.56;6319105;28;20040;-68
2023/03/02 13:39:38;;;;;;;1.90;1.08;;;;;;;-6.98;48.68;95263.94;6323933;28;20040;-68
2023/03/02 13:42:40;;;;;;;2.25;1.75;;;;;;;-7.37;49.65;95269.84;6323500;28;20058;-68
2023/03/02 13:45:59;;;;;;;1.55;1.45;;;;;;;-7.33;49.51;95273.19;6323588;28;20036;-69
2023/03/02 13:49:10;;;;;;;1.95;1.17;;;;;;;-7.57;49.92;95269.44;6323467;28;20134;-69
2023/03/02 13:52:26;;;;;;;1.23;1.02;;;;;;;-7.56;50.58;95271.94;6322889;28;20116;-68
2023/03/02 13:55:30;;;;;;;1.33;0.98;;;;;;;-7.59;51.06;95260.94;6323694;28;20036;-68
2023/03/02 13:58:39;;;;;;;1.83;0.93;;;;;;;-7.46;50.90;95278.56;6323850;28;20032;-67
2023/03/02 14:01:45;;;;;;;0.98;0.90;;;;;;;-7.48;51.50;95282.84;6323629;28;20039;-68
2023/03/02 14:04:49;;;;;;;2.72;0.93;;;;;;;-7.52;51.01;95277.84;6323526;28;20044;-68
2023/03/02 14:07:51;;;;;;;2.80;1.15;;;;;;;-7.55;51.50;95267.69;6322545;28;20044;-67
2023/03/02 14:10:57;;;;;;;2.45;0.90;;;;;;;-7.61;52.05;95275.44;6323437;28;20090;-67
2023/03/02 14:14:02;;;;;;;7.07;1.42;;;;;;;-7.80;52.09;95288.59;6322453;28;20048;-67
2023/03/02 14:17:14;;;;;;;1.02;0.93;;;;;;;-7.90;52.10;95297.28;6322745;28;20036;-67
2023/03/02 14:20:18;;;;;;;1.95;1.40;;;;;;;-8.02;52.59;95289.84;6322644;28;20174;-68
2023/03/02 14:23:19;;;;;;;;;;;;;;;-8.00;52.16;95285.56;6322371;28;20151;-67
2023/03/02 14:26:36;;;;;;;2.58;1.33;;;;;;;-8.13;52.71;95292.59;6322546;28;20007;-68
2023/03/02 14:29:41;;;;;;;2.97;2.05;;;;;;;-7.98;52.82;95278.72;6322797;28;20044;-67
2023/03/02 14:32:42;;;;;;;2.20;1.42;;;;;;;-8.33;53.13;95282.75;6322114;28;20063;-68
2023/03/02 14:35:47;;;;;;;0.73;0.73;;;;;;;-8.34;53.21;95278.50;6322652;28;20039;-68
2023/03/02 14:38:50;;;;;;;3.78;1.33;;;;;;;-8.23;53.48;95289.38;6322974;28;20778;-68
2023/03/02 14:41:55;;;;;;;2.65;1.60;;;;;;;-8.22;53.44;95300.41;6322534;28;20552;-67
2023/03/02 14:44:56;;;;;;;3.28;1.45;;;;;;;-8.43;53.84;95301.66;6322012;28;20505;-67
2023/03/02 14:48:00;;;;;;;1.08;0.98;;;;;;;-8.45;54.02;95308.50;6320917;28;20118;-68